CSAV Lonquen — A8OT2 — position and weather

sailwx.info

Track history (hours):
 
Tides and Currents Weather Stations Pressure Air Temp Water Temp Dewpoint Dewpoint Depression Visibility Wind Speed Wind Dir Waves Ship Positions

CSAV Lonquen

Last reported at 2015-Sep-02 23:33 UTC. Time now 2015-Sep-02 23:55 UTC.
Position N 51°54' E 004°26'.

Length 261 m; draft 8.6 m.

Type: Ship (hazmat cat A). MMSI: 636091501.

Date/timePositionNaut miles runAvg speedWind from/ knotsBaromVisibWave heightAir tempDewpointWater temp
2015-Sep-02 23:33N 51°54' E 004°26'0 0.0
2015-Sep-02 22:33N 51°54' E 004°26'0 0.0
2015-Sep-02 21:33N 51°54' E 004°26'0 0.0
2015-Sep-02 20:33N 51°54' E 004°26'0 0.0
2015-Sep-02 19:33N 51°54' E 004°26'0 0.0
2015-Sep-02 18:33N 51°54' E 004°26'0 0.0
2015-Sep-02 17:33N 51°54' E 004°26'0 0.0
2015-Sep-02 16:33N 51°54' E 004°26'0 0.0
2015-Sep-02 15:33N 51°54' E 004°26'0 0.0
2015-Sep-02 14:33N 51°54' E 004°26'0 0.0
2015-Sep-02 13:33N 51°54' E 004°26'0 0.0
2015-Sep-02 12:33N 51°54' E 004°26'0 0.0
2015-Sep-02 11:33N 51°54' E 004°26'0 0.0
2015-Sep-02 10:33N 51°54' E 004°26'0 0.0
2015-Sep-02 09:33N 51°54' E 004°26'0 0.0
2015-Sep-02 08:33N 51°54' E 004°26'0 0.0
2015-Sep-02 07:33N 51°54' E 004°26'0 0.0
2015-Sep-02 06:33N 51°54' E 004°26'0 0.0
2015-Sep-02 05:33N 51°54' E 004°26'1 0.6
2015-Sep-02 04:34N 51°54' E 004°26'9 9.4
2015-Sep-02 03:34N 51°57' E 004°11'1010.5
2015-Sep-02 02:33N 51°60' E 003°55'6 6.2
2015-Sep-02 01:33N 51°59' E 003°45'10 9.5
2015-Sep-02 00:33N 51°56' E 003°30'54 9.0
2015-Sep-01 18:33N 51°51' E 002°03'1110.5
2015-Sep-01 17:33N 51°48' E 001°47'9 9.6
2015-Sep-01 16:33N 51°53' E 001°34'10 0.5
2015-Aug-31 20:25N 51°57' E 001°18'7 7.6
2015-Aug-31 19:33N 51°56' E 001°28'7 7.4
2015-Aug-31 18:33N 51°52' E 001°38'5 4.7
2015-Aug-31 17:33N 51°54' E 001°44'4 4.0
2015-Aug-31 16:33N 51°52' E 001°39'1 1.3
2015-Aug-31 15:33N 51°51' E 001°41'4 3.5
2015-Aug-31 14:33N 51°51' E 001°47'1010.0
2015-Aug-31 13:33N 51°42' E 001°49'1010.1
2015-Aug-31 12:33N 51°31' E 001°48'1111.2
2015-Aug-31 11:33N 51°21' E 001°45'1211.9
2015-Aug-31 10:34N 51°09' E 001°43'1313.1
2015-Aug-31 09:33N 50°59' E 001°29'1312.9
2015-Aug-31 08:34N 50°47' E 001°22'2510.7
2015-Aug-31 06:12N 50°30' E 000°52'1810.5
2015-Aug-31 04:29N 50°26' E 000°24'23611.2
2015-Aug-30 07:31N 48°57' W 005°14'55015.7
2015-Aug-28 20:33N 40°23' W 009°50'1616.6
2015-Aug-28 19:34N 40°07' W 009°51'1716.5
2015-Aug-28 18:33N 39°50' W 009°52'1616.5
2015-Aug-28 17:33N 39°34' W 009°51'1716.9
2015-Aug-28 16:33N 39°17' W 009°52'1717.1
2015-Aug-28 15:33N 38°60' W 009°51'1616.2
2015-Aug-28 14:34N 38°44' W 009°51'1616.2
2015-Aug-28 13:34N 38°27' W 009°48'1616.2
2015-Aug-28 12:34N 38°12' W 009°43'1716.6
2015-Aug-28 11:33N 37°56' W 009°38'1616.3
2015-Aug-28 10:34N 37°40' W 009°32'1616.3
2015-Aug-28 09:33N 37°24' W 009°25'1716.0
2015-Aug-28 08:28N 37°07' W 009°23'1515.4
2015-Aug-28 07:31N 36°53' W 009°19'2018.7
2015-Aug-28 06:28N 36°42' W 008°59'1717.2
2015-Aug-28 05:29N 36°37' W 008°39'1516.2
2015-Aug-28 04:33N 36°32' W 008°21'32515.9
2015-Aug-27 08:04N 36°33' W 001°37'4216.6
2015-Aug-27 05:34N 36°44' W 000°46'3716.5
2015-Aug-27 03:17N 36°53' W 000°01'1216.3
2015-Aug-27 02:32N 36°57' E 000°14'1816.7
2015-Aug-27 01:29N 37°01' E 000°35'9916.7
2015-Aug-26 19:33N 37°26' E 002°35'6616.5
2015-Aug-26 15:32N 37°43' E 003°56'22917.5
2015-Aug-26 02:25N 38°41' E 008°37'1516.6
2015-Aug-26 01:33N 38°45' E 008°55'1616.5
2015-Aug-26 00:33N 38°49' E 009°16'1716.5
2015-Aug-25 23:33N 38°54' E 009°36'1716.6
2015-Aug-25 22:33N 39°01' E 009°56'21616.5
2015-Aug-25 09:28N 40°24' E 014°15'1415.5
2015-Aug-25 08:32N 40°31' E 014°32'14 0.7
2015-Aug-24 13:11N 40°40' E 014°45'0 0.0
2015-Aug-24 12:32N 40°40' E 014°45'14 4.6
2015-Aug-24 09:33N 40°27' E 014°42'1716.2
2015-Aug-24 08:32N 40°10' E 014°44'1616.5
2015-Aug-24 07:33N 39°55' E 014°52'3716.7
2015-Aug-24 05:19N 39°21' E 015°10'1316.9
2015-Aug-24 04:33N 39°09' E 015°16'1616.8
2015-Aug-24 03:33N 38°53' E 015°25'1716.6
2015-Aug-24 02:33N 38°38' E 015°33'1616.6
2015-Aug-24 01:33N 38°23' E 015°41'1414.0
2015-Aug-24 00:34N 38°09' E 015°37'  
Track history (hours):
 
Tides and Currents Weather Stations Pressure Air Temp Water Temp Dewpoint Dewpoint Depression Visibility Wind Speed Wind Dir Waves Ship Positions

CSAV Lonquen

Last reported at 2015-Sep-02 23:33 UTC. Time now 2015-Sep-02 23:55 UTC.
Position N 51°54' E 004°26'.

Length 261 m; draft 8.6 m.

Type: Ship (hazmat cat A). MMSI: 636091501.

Date/timePositionNaut miles runAvg speedWind from/ knotsBaromVisibWave heightAir tempDewpointWater temp
2015-Sep-02 23:33N 51°54' E 004°26'0 0.0
2015-Sep-02 22:33N 51°54' E 004°26'0 0.0
2015-Sep-02 21:33N 51°54' E 004°26'0 0.0
2015-Sep-02 20:33N 51°54' E 004°26'0 0.0
2015-Sep-02 19:33N 51°54' E 004°26'0 0.0
2015-Sep-02 18:33N 51°54' E 004°26'0 0.0
2015-Sep-02 17:33N 51°54' E 004°26'0 0.0
2015-Sep-02 16:33N 51°54' E 004°26'0 0.0
2015-Sep-02 15:33N 51°54' E 004°26'0 0.0
2015-Sep-02 14:33N 51°54' E 004°26'0 0.0
2015-Sep-02 13:33N 51°54' E 004°26'0 0.0
2015-Sep-02 12:33N 51°54' E 004°26'0 0.0
2015-Sep-02 11:33N 51°54' E 004°26'0 0.0
2015-Sep-02 10:33N 51°54' E 004°26'0 0.0
2015-Sep-02 09:33N 51°54' E 004°26'0 0.0
2015-Sep-02 08:33N 51°54' E 004°26'0 0.0
2015-Sep-02 07:33N 51°54' E 004°26'0 0.0
2015-Sep-02 06:33N 51°54' E 004°26'0 0.0
2015-Sep-02 05:33N 51°54' E 004°26'1 0.6
2015-Sep-02 04:34N 51°54' E 004°26'9 9.4
2015-Sep-02 03:34N 51°57' E 004°11'1010.5
2015-Sep-02 02:33N 51°60' E 003°55'6 6.2
2015-Sep-02 01:33N 51°59' E 003°45'10 9.5
2015-Sep-02 00:33N 51°56' E 003°30'54 9.0
2015-Sep-01 18:33N 51°51' E 002°03'1110.5
2015-Sep-01 17:33N 51°48' E 001°47'9 9.6
2015-Sep-01 16:33N 51°53' E 001°34'10 0.5
2015-Aug-31 20:25N 51°57' E 001°18'7 7.6
2015-Aug-31 19:33N 51°56' E 001°28'7 7.4
2015-Aug-31 18:33N 51°52' E 001°38'5 4.7
2015-Aug-31 17:33N 51°54' E 001°44'4 4.0
2015-Aug-31 16:33N 51°52' E 001°39'1 1.3
2015-Aug-31 15:33N 51°51' E 001°41'4 3.5
2015-Aug-31 14:33N 51°51' E 001°47'1010.0
2015-Aug-31 13:33N 51°42' E 001°49'1010.1
2015-Aug-31 12:33N 51°31' E 001°48'1111.2
2015-Aug-31 11:33N 51°21' E 001°45'1211.9
2015-Aug-31 10:34N 51°09' E 001°43'1313.1
2015-Aug-31 09:33N 50°59' E 001°29'1312.9
2015-Aug-31 08:34N 50°47' E 001°22'2510.7
2015-Aug-31 06:12N 50°30' E 000°52'1810.5
2015-Aug-31 04:29N 50°26' E 000°24'23611.2
2015-Aug-30 07:31N 48°57' W 005°14'55015.7
2015-Aug-28 20:33N 40°23' W 009°50'1616.6
2015-Aug-28 19:34N 40°07' W 009°51'1716.5
2015-Aug-28 18:33N 39°50' W 009°52'1616.5
2015-Aug-28 17:33N 39°34' W 009°51'1716.9
2015-Aug-28 16:33N 39°17' W 009°52'1717.1
2015-Aug-28 15:33N 38°60' W 009°51'1616.2
2015-Aug-28 14:34N 38°44' W 009°51'1616.2
2015-Aug-28 13:34N 38°27' W 009°48'1616.2
2015-Aug-28 12:34N 38°12' W 009°43'1716.6
2015-Aug-28 11:33N 37°56' W 009°38'1616.3
2015-Aug-28 10:34N 37°40' W 009°32'1616.3
2015-Aug-28 09:33N 37°24' W 009°25'1716.0
2015-Aug-28 08:28N 37°07' W 009°23'1515.4
2015-Aug-28 07:31N 36°53' W 009°19'2018.7
2015-Aug-28 06:28N 36°42' W 008°59'1717.2
2015-Aug-28 05:29N 36°37' W 008°39'1516.2
2015-Aug-28 04:33N 36°32' W 008°21'32515.9
2015-Aug-27 08:04N 36°33' W 001°37'4216.6
2015-Aug-27 05:34N 36°44' W 000°46'3716.5
2015-Aug-27 03:17N 36°53' W 000°01'1216.3
2015-Aug-27 02:32N 36°57' E 000°14'1816.7
2015-Aug-27 01:29N 37°01' E 000°35'9916.7
2015-Aug-26 19:33N 37°26' E 002°35'6616.5
2015-Aug-26 15:32N 37°43' E 003°56'22917.5
2015-Aug-26 02:25N 38°41' E 008°37'1516.6
2015-Aug-26 01:33N 38°45' E 008°55'1616.5
2015-Aug-26 00:33N 38°49' E 009°16'1716.5
2015-Aug-25 23:33N 38°54' E 009°36'1716.6
2015-Aug-25 22:33N 39°01' E 009°56'21616.5
2015-Aug-25 09:28N 40°24' E 014°15'1415.5
2015-Aug-25 08:32N 40°31' E 014°32'14 0.7
2015-Aug-24 13:11N 40°40' E 014°45'0 0.0
2015-Aug-24 12:32N 40°40' E 014°45'14 4.6
2015-Aug-24 09:33N 40°27' E 014°42'1716.2
2015-Aug-24 08:32N 40°10' E 014°44'1616.5
2015-Aug-24 07:33N 39°55' E 014°52'3716.7
2015-Aug-24 05:19N 39°21' E 015°10'1316.9
2015-Aug-24 04:33N 39°09' E 015°16'1616.8
2015-Aug-24 03:33N 38°53' E 015°25'1716.6
2015-Aug-24 02:33N 38°38' E 015°33'1616.6
2015-Aug-24 01:33N 38°23' E 015°41'1414.0
2015-Aug-24 00:34N 38°09' E 015°37'  

Dump ship's entire track history